Grantham, United Kingdom
Current Conditions -  °F | °C
As of 5:50 PM on Tuesday 27 Jan 2015 (Local Time) from EGYD Reporting Station
Overcast Overcast  
Wind Chill: 38°   Ceiling: 2600
Heat Index: 45°   Visibility: 6mi
Dew Point: 37°   Wind: 14mph
Humidity: 76%   Direction: 250°WSW
Pressure: 30.15"   Gusts: NA
Location:  52.92°N, 0.64°W
Report Text: EGYD 271750Z AUTO 25012KT 9999 // OVC026/// 07/03 Q1021
Loading
Personal Weather Stations






























Interactive Weather Map New forecast layout! Learn more

10-Day Weather Forecast

Advertisements
Track Severe Weather on mobile